Hlavní strana
METAR-TAF:

METAR-TAF

Letiště :

Donau

Neuburg, Německo

zeměpisná šířka: 48-43N, zeměpisná délka: 011-13E, výška: 380 m

Aktuální stav počasí

Zpráva byla vytvořena před 59 minutami, v 20:20 UTC
Severní vítr 2 kt
Teplota 19°C
Vlhkost vzduchu 78%
Tlak 1021 hPa
Viditelnost 10 km a více
Oblačno až skoro zataženo ve výšce 30000 ft

METAR: ETSN 262020Z 35002KT 9999 BKN300 19/15 Q1021 BLU+

Čas: 23:19 (21:19 UTC)


TAF: chybějící

Stav a předpovědi počasí z více než 4 000 letišť (zprávy METAR a TAF).

Červené a žluté tečky na mapě představují dostupné meteorologické stanice.

Když kurzor umístíte na tečku, zobrazí se název stanice.

Pak kliknutím zobrazíte stav a předpověď počasí.

Chcete-li změnit mapu, kliknutím na zelené tlačítko se znaménkem +mapu přiblížíte, kliknutím na zelené tlačítko se znaménkem – mapu oddálíte a kliknutím na zelené šipky přejdete na sousední mapy.


METAR-TAF: